createdAt,value
2023-02-25T00:02:11.718Z,20.60
2023-02-25T00:04:42.205Z,19.80
2023-02-25T00:07:10.808Z,19.00
2023-02-25T00:09:39.641Z,22.00
2023-02-25T00:12:10.330Z,19.80
2023-02-25T00:14:40.729Z,19.20
2023-02-25T00:17:09.265Z,19.40
2023-02-25T00:19:38.159Z,18.60
2023-02-25T00:22:06.624Z,15.40
2023-02-25T00:24:35.348Z,18.20
2023-02-25T00:27:04.248Z,18.60
2023-02-25T00:29:35.006Z,24.20
2023-02-25T00:32:04.169Z,14.40
2023-02-25T00:34:33.021Z,19.60
2023-02-25T00:37:01.565Z,17.00
2023-02-25T00:39:42.100Z,13.40
2023-02-25T00:42:11.168Z,15.20
2023-02-25T00:44:44.330Z,21.60
2023-02-25T00:47:13.599Z,15.20
2023-02-25T00:49:42.564Z,13.00
2023-02-25T00:52:11.419Z,14.80
2023-02-25T00:54:40.589Z,16.20
2023-02-25T00:57:09.267Z,12.80
2023-02-25T00:59:38.144Z,12.20
2023-02-25T01:02:08.097Z,23.40
2023-02-25T01:04:36.844Z,18.80
2023-02-25T01:07:05.358Z,11.00
2023-02-25T01:09:34.663Z,13.80
2023-02-25T01:12:04.311Z,14.00
2023-02-25T01:14:33.725Z,12.40
2023-02-25T01:17:03.407Z,11.60
2023-02-25T01:19:33.687Z,12.60
2023-02-25T01:22:02.241Z,16.00
2023-02-25T01:24:34.622Z,12.40
2023-02-25T01:27:05.081Z,13.80
2023-02-25T01:29:37.081Z,13.80
2023-02-25T01:32:06.841Z,12.60
2023-02-25T01:34:37.206Z,12.20
2023-02-25T01:37:06.120Z,10.00
2023-02-25T01:39:38.017Z,15.60
2023-02-25T01:42:14.246Z,14.00
2023-02-25T01:45:16.334Z,11.80
2023-02-25T01:47:49.250Z,14.60
2023-02-25T01:50:20.711Z,17.60
2023-02-25T01:52:53.151Z,15.40
2023-02-25T01:55:22.202Z,12.80
2023-02-25T01:57:52.226Z,13.40
2023-02-25T02:00:21.894Z,11.00
2023-02-25T02:02:53.012Z,11.80
2023-02-25T02:05:28.451Z,11.00
2023-02-25T02:07:57.170Z,9.40
2023-02-25T02:10:28.581Z,11.40
2023-02-25T02:12:57.681Z,10.20
2023-02-25T02:15:26.666Z,13.40
2023-02-25T02:18:00.555Z,11.80
2023-02-25T02:20:34.872Z,11.60
2023-02-25T02:23:35.495Z,12.20
2023-02-25T02:26:33.905Z,7.40
2023-02-25T02:29:34.039Z,11.00
2023-02-25T02:32:15.166Z,10.20
2023-02-25T02:34:49.815Z,10.40
2023-02-25T02:37:30.775Z,9.40
2023-02-25T02:40:15.077Z,11.20
2023-02-25T02:42:55.645Z,14.00
2023-02-25T02:45:30.061Z,12.00
2023-02-25T02:48:04.398Z,14.00
2023-02-25T02:50:36.637Z,12.00
2023-02-25T02:53:09.765Z,10.40
2023-02-25T02:55:41.273Z,11.60
2023-02-25T02:58:16.327Z,11.80
2023-02-25T03:00:50.470Z,7.20
2023-02-25T03:03:36.472Z,9.40
2023-02-25T03:06:09.433Z,10.40
2023-02-25T03:08:45.917Z,9.60
2023-02-25T03:11:15.802Z,11.60
2023-02-25T03:13:47.330Z,9.40
2023-02-25T03:16:24.864Z,11.20
2023-02-25T03:19:00.053Z,16.80
2023-02-25T03:21:34.127Z,12.00
2023-02-25T03:24:06.368Z,12.00
2023-02-25T03:26:36.511Z,10.00
2023-02-25T03:29:06.462Z,10.40
2023-02-25T03:31:42.445Z,14.40
2023-02-25T03:34:19.118Z,9.40
2023-02-25T03:36:55.448Z,10.80
2023-02-25T03:39:29.120Z,9.40
2023-02-25T03:42:02.311Z,11.60
2023-02-25T03:44:34.971Z,7.80
2023-02-25T03:47:07.693Z,16.20
2023-02-25T03:49:45.351Z,9.80
2023-02-25T03:52:18.276Z,13.20
2023-02-25T03:54:51.442Z,12.00
2023-02-25T03:57:21.486Z,11.20
2023-02-25T03:59:50.897Z,3.00
2023-02-25T04:02:20.752Z,13.40
2023-02-25T04:04:51.196Z,13.20
2023-02-25T04:07:19.746Z,10.00
2023-02-25T04:09:48.637Z,12.80
2023-02-25T04:12:17.207Z,12.40
2023-02-25T04:14:46.185Z,10.40
2023-02-25T04:17:15.257Z,13.60
2023-02-25T04:19:44.137Z,11.00
2023-02-25T04:22:14.096Z,13.00
2023-02-25T04:24:42.981Z,13.40
2023-02-25T04:27:11.697Z,16.80
2023-02-25T04:29:40.521Z,10.80
2023-02-25T04:32:09.199Z,12.60
2023-02-25T04:34:38.098Z,17.00
2023-02-25T04:37:06.926Z,12.20
2023-02-25T04:39:37.667Z,11.40
2023-02-25T04:42:06.348Z,18.20
2023-02-25T04:44:35.232Z,12.80
2023-02-25T04:47:03.945Z,15.80
2023-02-25T04:49:32.752Z,20.40
2023-02-25T04:52:01.393Z,16.20
2023-02-25T04:54:30.211Z,12.80
2023-02-25T04:57:00.094Z,17.00
2023-02-25T04:59:28.886Z,17.80
2023-02-25T05:01:57.413Z,17.60
2023-02-25T05:04:26.205Z,14.40
2023-02-25T05:06:54.706Z,18.20
2023-02-25T05:09:23.769Z,15.00
2023-02-25T05:11:52.193Z,13.40
2023-02-25T05:14:22.573Z,15.40
2023-02-25T05:16:51.450Z,11.40
2023-02-25T05:19:22.872Z,16.00
2023-02-25T05:21:52.196Z,17.20
2023-02-25T05:24:23.737Z,16.20
2023-02-25T05:26:52.950Z,16.80
2023-02-25T05:29:23.227Z,11.60
2023-02-25T05:31:52.129Z,16.40
2023-02-25T05:34:22.789Z,11.00
2023-02-25T05:36:52.508Z,13.20
2023-02-25T05:39:21.578Z,17.00
2023-02-25T05:41:51.681Z,11.60
2023-02-25T05:44:20.611Z,19.00
2023-02-25T05:46:50.463Z,23.00
2023-02-25T05:49:19.280Z,19.00
2023-02-25T05:51:47.728Z,20.40
2023-02-25T05:54:16.727Z,17.60
2023-02-25T05:56:45.419Z,20.60
2023-02-25T05:59:14.226Z,18.40
2023-02-25T06:01:42.775Z,16.80
2023-02-25T06:04:12.982Z,25.20
2023-02-25T06:06:42.144Z,20.00
2023-02-25T06:09:11.001Z,24.20
2023-02-25T06:11:39.626Z,22.40
2023-02-25T06:14:08.434Z,27.80
2023-02-25T06:16:40.550Z,24.20
2023-02-25T06:19:10.980Z,20.60
2023-02-25T06:21:41.388Z,22.60
2023-02-25T06:24:11.676Z,24.00
2023-02-25T06:26:42.654Z,27.00
2023-02-25T06:29:11.901Z,23.60
2023-02-25T06:31:41.209Z,25.40
2023-02-25T06:34:10.528Z,25.20
2023-02-25T06:36:40.654Z,20.80
2023-02-25T06:39:11.643Z,21.60
2023-02-25T06:41:40.126Z,29.20
2023-02-25T06:44:09.214Z,21.20
2023-02-25T06:46:37.713Z,26.60
2023-02-25T06:49:06.505Z,29.40
2023-02-25T06:51:35.050Z,27.00
2023-02-25T06:54:05.748Z,16.60
2023-02-25T06:56:34.194Z,19.40
2023-02-25T06:59:02.998Z,13.80
2023-02-25T07:01:32.069Z,14.60
2023-02-25T07:04:00.934Z,13.40
2023-02-25T07:06:29.460Z,18.20
2023-02-25T07:08:58.385Z,15.60
2023-02-25T07:11:35.805Z,17.20
2023-02-25T07:14:06.351Z,14.20
2023-02-25T07:16:35.942Z,16.00
2023-02-25T07:19:04.912Z,12.80
2023-02-25T07:21:33.822Z,17.20
2023-02-25T07:24:02.645Z,13.40
2023-02-25T07:26:32.636Z,11.60
2023-02-25T07:29:01.473Z,13.60
2023-02-25T07:31:30.166Z,11.60
2023-02-25T07:34:03.548Z,12.00
2023-02-25T07:36:33.507Z,17.20
2023-02-25T07:39:04.233Z,12.80
2023-02-25T07:41:34.507Z,15.20
2023-02-25T07:44:06.321Z,21.80
2023-02-25T07:46:35.013Z,13.00
2023-02-25T07:49:04.556Z,16.80
2023-02-25T07:51:33.120Z,13.80
2023-02-25T07:54:01.983Z,16.20
2023-02-25T07:56:31.487Z,13.80
2023-02-25T07:59:01.913Z,17.00
2023-02-25T08:01:33.174Z,16.00
2023-02-25T08:04:05.705Z,16.40
2023-02-25T08:06:38.526Z,21.20
2023-02-25T08:09:08.003Z,21.40
2023-02-25T08:11:36.658Z,16.20
2023-02-25T08:14:07.573Z,12.00
2023-02-25T08:16:36.160Z,12.60
2023-02-25T08:19:06.234Z,15.00
2023-02-25T08:21:34.909Z,16.00
2023-02-25T08:24:03.840Z,14.20
2023-02-25T08:26:32.454Z,12.00
2023-02-25T08:29:01.442Z,11.40
2023-02-25T08:31:31.937Z,15.60
2023-02-25T08:34:01.081Z,13.80
2023-02-25T08:36:31.592Z,12.00
2023-02-25T08:39:01.306Z,14.20
2023-02-25T08:41:30.890Z,16.00
2023-02-25T08:44:02.080Z,19.40
2023-02-25T08:46:37.262Z,2.40
2023-02-25T08:49:07.144Z,14.60
2023-02-25T08:51:35.691Z,15.20
2023-02-25T08:54:06.783Z,21.60
2023-02-25T08:56:36.279Z,25.20
2023-02-25T08:59:06.231Z,21.80
2023-02-25T09:01:45.816Z,21.00
2023-02-25T09:04:15.973Z,30.40
2023-02-25T09:06:47.403Z,26.20
2023-02-25T09:09:16.715Z,31.50
2023-02-25T09:11:47.185Z,25.80
2023-02-25T09:14:16.223Z,29.40
2023-02-25T09:16:46.160Z,26.60
2023-02-25T09:19:17.336Z,28.20
2023-02-25T09:21:48.207Z,27.40
2023-02-25T09:24:18.699Z,27.60
2023-02-25T09:26:47.625Z,30.00
2023-02-25T09:29:16.555Z,26.60
2023-02-25T09:31:46.715Z,31.80
2023-02-25T09:34:16.829Z,24.40
2023-02-25T09:36:45.474Z,26.00
2023-02-25T09:39:15.065Z,23.40
2023-02-25T09:41:53.909Z,20.20
2023-02-25T09:44:28.265Z,24.60
2023-02-25T09:47:03.589Z,22.20
2023-02-25T09:49:37.809Z,22.60
2023-02-25T09:52:12.955Z,28.40
2023-02-25T09:54:46.435Z,26.20
2023-02-25T09:57:19.228Z,32.25
2023-02-25T09:59:49.278Z,27.20
2023-02-25T10:02:31.752Z,31.60
2023-02-25T10:05:16.492Z,26.00
2023-02-25T10:07:56.617Z,26.00
2023-02-25T10:10:32.561Z,30.80
2023-02-25T10:13:14.842Z,27.20
2023-02-25T10:15:56.384Z,29.20
2023-02-25T10:18:43.326Z,24.80
2023-02-25T10:21:24.520Z,28.00
2023-02-25T10:24:10.672Z,27.00
2023-02-25T10:26:43.640Z,32.40
2023-02-25T10:29:20.450Z,29.60
2023-02-25T10:31:50.195Z,24.00
2023-02-25T10:34:26.134Z,25.60
2023-02-25T10:36:57.275Z,25.00
2023-02-25T10:39:27.811Z,23.80
2023-02-25T10:41:56.818Z,29.40
2023-02-25T10:44:25.374Z,23.20
2023-02-25T10:46:57.332Z,34.20
2023-02-25T10:49:28.442Z,41.50
2023-02-25T10:52:03.301Z,35.25
2023-02-25T10:54:35.339Z,33.60
2023-02-25T10:57:14.721Z,36.40
2023-02-25T10:59:45.866Z,34.00
2023-02-25T11:02:23.512Z,36.75
2023-02-25T11:04:54.726Z,30.80
2023-02-25T11:07:34.285Z,40.50
2023-02-25T11:10:16.646Z,31.60
2023-02-25T11:12:47.618Z,37.00
2023-02-25T11:15:44.061Z,36.25
2023-02-25T11:18:22.972Z,44.00
2023-02-25T11:20:56.199Z,40.00
2023-02-25T11:23:31.403Z,35.25
2023-02-25T11:26:01.620Z,44.50
2023-02-25T11:28:34.269Z,43.50
2023-02-25T11:31:10.353Z,41.75
2023-02-25T11:33:43.864Z,42.75
2023-02-25T11:36:14.194Z,35.60
2023-02-25T11:38:44.346Z,37.25
2023-02-25T11:41:19.780Z,38.50
2023-02-25T11:43:50.068Z,37.75
2023-02-25T11:46:23.902Z,47.00
2023-02-25T11:48:55.481Z,39.25
2023-02-25T11:51:29.044Z,44.50
2023-02-25T11:54:12.049Z,41.25
2023-02-25T11:56:48.592Z,42.50
2023-02-25T11:59:30.285Z,47.75
2023-02-25T12:02:26.413Z,31.00
2023-02-25T12:05:34.317Z,49.75
2023-02-25T12:08:18.387Z,54.00
2023-02-25T12:11:13.553Z,46.25
2023-02-25T12:14:11.676Z,44.25
2023-02-25T12:17:16.019Z,41.75
2023-02-25T12:20:20.619Z,26.40
2023-02-25T12:23:07.735Z,20.00
2023-02-25T12:25:49.903Z,18.60
2023-02-25T12:28:45.167Z,11.60
2023-02-25T12:31:37.329Z,10.00
2023-02-25T12:34:34.190Z,8.40
2023-02-25T12:37:27.771Z,9.20
2023-02-25T12:40:09.843Z,5.00
2023-02-25T12:42:56.213Z,8.00
2023-02-25T12:45:59.079Z,9.00
2023-02-25T12:48:55.916Z,6.60
2023-02-25T12:51:52.906Z,1.20
2023-02-25T12:54:36.115Z,4.00
2023-02-25T12:57:23.095Z,5.20
2023-02-25T13:00:24.223Z,5.80
2023-02-25T13:03:08.094Z,3.00
2023-02-25T13:05:55.168Z,3.00
2023-02-25T13:08:36.533Z,5.80
2023-02-25T13:11:20.791Z,7.80
2023-02-25T13:14:08.498Z,6.20
2023-02-25T13:16:52.785Z,6.20
2023-02-25T13:19:39.627Z,5.60
2023-02-25T13:22:24.880Z,1.00
2023-02-25T13:25:05.527Z,2.80
2023-02-25T13:27:55.255Z,3.80
2023-02-25T13:30:47.736Z,3.00
2023-02-25T13:33:29.806Z,7.00
2023-02-25T13:36:10.423Z,6.20
2023-02-25T13:38:55.577Z,6.40
2023-02-25T13:41:42.059Z,6.00
2023-02-25T13:44:28.649Z,12.00
2023-02-25T13:47:12.374Z,11.40
2023-02-25T13:50:24.970Z,9.00
2023-02-25T13:53:07.590Z,6.60
2023-02-25T13:55:56.513Z,8.40
2023-02-25T13:58:37.404Z,1.00
2023-02-25T14:01:28.150Z,2.40
2023-02-25T14:04:26.301Z,2.40
2023-02-25T14:07:20.680Z,3.00
2023-02-25T14:09:58.298Z,5.00
2023-02-25T14:12:44.482Z,3.00
2023-02-25T14:15:33.758Z,4.60
2023-02-25T14:18:16.852Z,7.00
2023-02-25T14:20:55.609Z,7.00
2023-02-25T14:23:38.464Z,5.80
2023-02-25T14:26:20.916Z,4.60
2023-02-25T14:29:00.723Z,6.00
2023-02-25T14:31:44.772Z,5.80
2023-02-25T14:34:36.179Z,7.00
2023-02-25T14:37:23.714Z,5.60
2023-02-25T14:40:05.303Z,7.20
2023-02-25T14:42:47.334Z,6.40
2023-02-25T14:45:24.303Z,4.60
2023-02-25T14:48:01.214Z,3.80
2023-02-25T14:50:36.495Z,6.60
2023-02-25T14:53:36.837Z,8.80
2023-02-25T14:56:27.463Z,6.60
2023-02-25T14:59:47.043Z,9.60
2023-02-25T15:02:28.920Z,11.00
2023-02-25T15:05:23.964Z,11.40
2023-02-25T15:08:05.471Z,9.20
2023-02-25T15:10:48.466Z,34.25
2023-02-25T15:13:44.775Z,16.80
2023-02-25T15:16:29.773Z,14.40
2023-02-25T15:19:38.010Z,26.00
2023-02-25T15:22:20.115Z,6.80
2023-02-25T15:24:49.547Z,12.20
2023-02-25T15:27:49.155Z,11.60
2023-02-25T15:30:22.878Z,10.00
2023-02-25T15:33:07.845Z,7.40
2023-02-25T15:36:00.929Z,12.00
2023-02-25T15:38:47.016Z,20.80
2023-02-25T15:41:44.814Z,10.80
2023-02-25T15:44:37.349Z,13.20
2023-02-25T15:47:27.748Z,12.80
2023-02-25T15:50:00.011Z,11.20
2023-02-25T15:52:52.091Z,10.80
2023-02-25T15:55:33.521Z,13.80
2023-02-25T15:58:02.994Z,16.20
2023-02-25T16:01:02.419Z,15.00
2023-02-25T16:03:43.106Z,25.25
2023-02-25T16:06:16.965Z,104.75
2023-02-25T16:08:53.356Z,16.00
2023-02-25T16:11:29.578Z,9.00
2023-02-25T16:14:00.351Z,6.00
2023-02-25T16:16:33.445Z,11.40
2023-02-25T16:19:06.950Z,3.00
2023-02-25T16:21:41.515Z,2.00
2023-02-25T16:24:11.938Z,2.00
2023-02-25T16:26:47.775Z,5.80
2023-02-25T16:29:31.547Z,5.80
2023-02-25T16:32:08.973Z,4.20
2023-02-25T16:34:48.677Z,75.00
2023-02-25T16:37:26.728Z,23.80
2023-02-25T16:39:55.542Z,7.80
2023-02-25T16:42:24.458Z,9.00
2023-02-25T16:45:00.298Z,9.60
2023-02-25T16:47:31.818Z,8.00
2023-02-25T16:50:07.846Z,7.80
2023-02-25T16:52:41.955Z,10.80
2023-02-25T16:55:16.959Z,10.20
2023-02-25T16:58:02.501Z,13.20
2023-02-25T17:00:31.129Z,9.00
2023-02-25T17:03:02.687Z,6.00
2023-02-25T17:05:35.575Z,6.20
2023-02-25T17:08:06.610Z,63.25
2023-02-25T17:10:43.613Z,13.20
2023-02-25T17:13:20.421Z,11.80
2023-02-25T17:15:49.082Z,5.00
2023-02-25T17:18:24.495Z,7.20
2023-02-25T17:21:02.500Z,10.00
2023-02-25T17:23:32.364Z,5.80
2023-02-25T17:26:01.107Z,6.60
2023-02-25T17:28:33.418Z,8.00
2023-02-25T17:31:09.758Z,9.00
2023-02-25T17:33:49.353Z,10.40
2023-02-25T17:36:23.064Z,13.20
2023-02-25T17:38:57.502Z,5.80
2023-02-25T17:41:26.970Z,9.00
2023-02-25T17:43:56.026Z,13.20
2023-02-25T17:46:30.930Z,14.80
2023-02-25T17:49:02.716Z,13.80
2023-02-25T17:51:36.072Z,8.60
2023-02-25T17:54:08.747Z,15.20
2023-02-25T17:56:38.177Z,15.80
2023-02-25T17:59:09.097Z,13.20
2023-02-25T18:01:49.286Z,1.20
2023-02-25T18:04:26.354Z,17.00
2023-02-25T18:06:56.746Z,17.40
2023-02-25T18:09:32.372Z,8.00
2023-02-25T18:12:03.844Z,8.00
2023-02-25T18:14:35.927Z,18.00
2023-02-25T18:17:14.114Z,17.50
2023-02-25T18:19:46.200Z,17.20
2023-02-25T18:22:35.989Z,20.60
2023-02-25T18:25:08.009Z,11.20
2023-02-25T18:27:37.996Z,13.60
2023-02-25T18:30:18.815Z,17.40
2023-02-25T18:32:48.211Z,24.25
2023-02-25T18:35:18.025Z,12.00
2023-02-25T18:37:50.424Z,12.80
2023-02-25T18:40:24.655Z,12.80
2023-02-25T18:42:53.413Z,7.20
2023-02-25T18:45:25.564Z,6.20
2023-02-25T18:47:56.844Z,11.20
2023-02-25T18:50:26.139Z,11.20
2023-02-25T18:52:56.535Z,13.80
2023-02-25T18:55:27.658Z,24.60
2023-02-25T18:57:57.589Z,16.20
2023-02-25T19:00:29.062Z,32.25
2023-02-25T19:02:59.854Z,23.75
2023-02-25T19:05:29.752Z,17.20
2023-02-25T19:08:00.092Z,20.60
2023-02-25T19:10:31.906Z,13.40
2023-02-25T19:13:04.167Z,17.60
2023-02-25T19:15:33.730Z,19.60
2023-02-25T19:18:02.718Z,26.50
2023-02-25T19:20:31.580Z,25.00
2023-02-25T19:23:01.771Z,17.20
2023-02-25T19:25:35.131Z,19.80
2023-02-25T19:28:04.690Z,21.75
2023-02-25T19:30:35.809Z,21.50
2023-02-25T19:33:05.512Z,18.40
2023-02-25T19:35:37.127Z,18.25
2023-02-25T19:38:08.806Z,24.00
2023-02-25T19:40:38.369Z,27.00
2023-02-25T19:43:07.063Z,18.60
2023-02-25T19:45:35.873Z,22.00
2023-02-25T19:48:04.996Z,18.00
2023-02-25T19:50:35.048Z,17.00
2023-02-25T19:53:05.748Z,14.60
2023-02-25T19:55:36.545Z,20.60
2023-02-25T19:58:05.213Z,22.00
2023-02-25T20:00:34.159Z,17.00
2023-02-25T20:03:02.837Z,23.20
2023-02-25T20:05:31.951Z,13.40
2023-02-25T20:08:00.878Z,20.00
2023-02-25T20:10:30.361Z,18.40
2023-02-25T20:13:00.756Z,18.20
2023-02-25T20:15:29.972Z,15.80
2023-02-25T20:17:58.593Z,14.60
2023-02-25T20:20:27.561Z,15.20
2023-02-25T20:22:56.191Z,9.80
2023-02-25T20:25:25.212Z,9.80
2023-02-25T20:27:53.902Z,9.20
2023-02-25T20:30:24.535Z,10.60
2023-02-25T20:32:53.441Z,9.60
2023-02-25T20:35:25.249Z,10.40
2023-02-25T20:38:16.923Z,7.80
2023-02-25T20:40:46.100Z,13.00
2023-02-25T20:43:15.340Z,12.60
2023-02-25T20:45:46.434Z,13.60
2023-02-25T20:48:27.190Z,43.75
2023-02-25T20:50:56.716Z,36.00
2023-02-25T20:53:26.150Z,28.80
2023-02-25T20:55:58.204Z,13.60
2023-02-25T20:58:26.771Z,10.80
2023-02-25T21:00:57.673Z,9.60
2023-02-25T21:03:26.446Z,9.80
2023-02-25T21:05:55.348Z,8.00
2023-02-25T21:08:23.978Z,12.20
2023-02-25T21:10:52.863Z,11.00
2023-02-25T21:13:21.796Z,11.20
2023-02-25T21:15:50.695Z,5.80
2023-02-25T21:18:20.666Z,5.60
2023-02-25T21:20:49.529Z,5.00
2023-02-25T21:23:18.081Z,5.00
2023-02-25T21:25:47.904Z,33.60
2023-02-25T21:28:17.398Z,9.00
2023-02-25T21:30:46.315Z,8.20
2023-02-25T21:33:14.916Z,8.00
2023-02-25T21:35:46.675Z,11.80
2023-02-25T21:38:15.644Z,9.40
2023-02-25T21:40:44.697Z,8.80
2023-02-25T21:43:13.451Z,5.20
2023-02-25T21:45:43.755Z,6.40
2023-02-25T21:48:12.291Z,6.00
2023-02-25T21:50:47.282Z,2.60
2023-02-25T21:53:15.964Z,11.40
2023-02-25T21:55:45.159Z,6.20
2023-02-25T21:58:13.714Z,8.20
2023-02-25T22:00:43.061Z,8.80
2023-02-25T22:03:11.925Z,5.00
2023-02-25T22:05:47.218Z,5.00
2023-02-25T22:08:16.206Z,6.80
2023-02-25T22:10:45.008Z,6.80
2023-02-25T22:13:13.605Z,9.80
2023-02-25T22:15:47.800Z,17.80
2023-02-25T22:18:16.455Z,13.80
2023-02-25T22:20:47.240Z,5.60
2023-02-25T22:23:16.259Z,6.00
2023-02-25T22:25:45.154Z,5.60
2023-02-25T22:28:13.786Z,4.80
2023-02-25T22:30:47.140Z,4.60
2023-02-25T22:33:15.821Z,7.40
2023-02-25T22:35:53.995Z,2.60
2023-02-25T22:38:22.580Z,3.00
2023-02-25T22:40:52.051Z,2.40
2023-02-25T22:43:20.677Z,5.20
2023-02-25T22:45:49.585Z,3.20
2023-02-25T22:48:18.324Z,3.80
2023-02-25T22:50:51.411Z,3.80
2023-02-25T22:53:19.973Z,4.20
2023-02-25T22:55:48.973Z,5.20
2023-02-25T22:58:17.495Z,5.60
2023-02-25T23:00:47.550Z,2.60
2023-02-25T23:03:16.214Z,6.00
2023-02-25T23:05:45.560Z,5.00
2023-02-25T23:08:15.816Z,9.00
2023-02-25T23:10:44.730Z,7.60
2023-02-25T23:13:13.374Z,9.80
2023-02-25T23:15:47.520Z,8.40
2023-02-25T23:18:17.030Z,6.60
2023-02-25T23:20:47.485Z,18.80
2023-02-25T23:23:17.671Z,15.80
2023-02-25T23:25:52.509Z,10.00
2023-02-25T23:28:21.181Z,9.20
2023-02-25T23:30:50.088Z,7.20
2023-02-25T23:33:18.740Z,7.20
2023-02-25T23:35:49.629Z,8.60
2023-02-25T23:38:19.950Z,13.40
2023-02-25T23:40:49.392Z,10.00
2023-02-25T23:43:18.293Z,6.40
2023-02-25T23:45:47.510Z,11.60
2023-02-25T23:48:16.197Z,9.20
2023-02-25T23:50:45.071Z,9.00
2023-02-25T23:53:13.637Z,19.60
2023-02-25T23:55:43.862Z,15.80
2023-02-25T23:58:12.538Z,13.80
